Time;durP1;ratioP1;P1;durP2;ratioP2;P2;SDS_P1;SDS_P2;PMS_P1;PMS_P2;Temp;Humidity;BMP_temperature;BMP_pressure;BME280_temperature;BME280_humidity;BME280_pressure;Samples;Min_cycle;Max_cycle;Signal;HPM_P1;HPM_P2
2022/08/26 00:00:11;;;;;;;20.92;15.52;;;;;;;;;;4971361;28;20189;-65
2022/08/26 00:02:36;;;;;;;21.52;15.63;;;;;;;;;;4973620;28;20396;-65
2022/08/26 00:05:02;;;;;;;21.70;16.83;;;;;;;;;;4977035;28;20193;-65
2022/08/26 00:07:28;;;;;;;18.10;13.63;;;;;;;;;;4982659;28;20184;-65
2022/08/26 00:09:53;;;;;;;19.52;13.98;;;;;;;;;;4977936;28;20189;-65
2022/08/26 00:12:18;;;;;;;22.27;15.43;;;;;;;;;;4975950;28;20260;-65
2022/08/26 00:14:44;;;;;;;21.00;14.50;;;;;;;;;;4976603;28;20220;-65
2022/08/26 00:17:09;;;;;;;18.90;16.10;;;;;;;;;;4977265;28;20185;-65
2022/08/26 00:19:34;;;;;;;22.60;13.57;;;;;;;;;;4976395;28;20384;-65
2022/08/26 00:22:00;;;;;;;18.23;13.85;;;;;;;;;;4972731;28;20243;-65
2022/08/26 00:24:25;;;;;;;16.92;12.52;;;;;;;;;;4972984;28;20935;-65
2022/08/26 00:26:50;;;;;;;15.77;11.90;;;;;;;;;;4974174;28;20189;-66
2022/08/26 00:29:16;;;;;;;19.15;12.88;;;;;;;;;;4979273;28;20212;-65
2022/08/26 00:31:41;;;;;;;18.83;10.90;;;;;;;;;;4981041;28;20243;-65
2022/08/26 00:34:07;;;;;;;18.13;10.63;;;;;;;;;;4975858;28;20197;-66
2022/08/26 00:36:32;;;;;;;17.02;10.70;;;;;;;;;;4977679;28;20652;-65
2022/08/26 00:38:57;;;;;;;16.02;10.35;;;;;;;;;;4975898;28;20186;-65
2022/08/26 00:41:23;;;;;;;16.58;10.40;;;;;;;;;;4975194;28;20229;-65
2022/08/26 00:43:49;;;;;;;16.65;10.88;;;;;;;;;;4970352;28;20196;-65
2022/08/26 00:46:19;;;;;;;15.80;9.07;;;;;;;;;;4958701;28;20206;-66
2022/08/26 00:48:45;;;;;;;16.02;8.93;;;;;;;;;;4973682;28;20244;-65
2022/08/26 00:51:13;;;;;;;13.70;9.00;;;;;;;;;;4983019;28;20197;-65
2022/08/26 00:53:40;;;;;;;15.60;9.45;;;;;;;;;;4981710;28;20660;-66
2022/08/26 00:56:07;;;;;;;15.15;8.63;;;;;;;;;;4984772;28;20189;-66
2022/08/26 00:58:32;;;;;;;11.43;7.53;;;;;;;;;;4979999;28;20184;-65
2022/08/26 01:00:58;;;;;;;16.60;8.65;;;;;;;;;;4982997;28;20189;-65
2022/08/26 01:03:24;;;;;;;13.98;7.50;;;;;;;;;;4982658;28;20220;-65
2022/08/26 01:05:50;;;;;;;12.68;7.20;;;;;;;;;;4975499;28;20185;-66
2022/08/26 01:08:15;;;;;;;13.50;7.55;;;;;;;;;;4975133;28;20197;-66
2022/08/26 01:10:41;;;;;;;12.38;6.20;;;;;;;;;;4976684;28;20173;-66
2022/08/26 01:13:09;;;;;;;14.15;6.55;;;;;;;;;;4964962;28;21490;-65
2022/08/26 01:15:35;;;;;;;12.70;6.75;;;;;;;;;;4981544;28;20552;-66
2022/08/26 01:18:02;;;;;;;10.32;5.38;;;;;;;;;;4980500;28;20197;-66
2022/08/26 01:20:45;;;;;;;14.38;5.80;;;;;;;;;;4982503;28;20185;-65
2022/08/26 01:23:10;;;;;;;15.27;5.85;;;;;;;;;;4983743;28;20224;-65
2022/08/26 01:25:37;;;;;;;11.40;5.30;;;;;;;;;;4979933;28;20284;-66
2022/08/26 01:28:04;;;;;;;14.30;5.45;;;;;;;;;;4959004;28;20215;-66
2022/08/26 01:30:30;;;;;;;13.20;6.28;;;;;;;;;;4971414;28;20396;-65
2022/08/26 01:32:56;;;;;;;13.20;5.38;;;;;;;;;;4975405;28;20223;-65
2022/08/26 01:35:21;;;;;;;11.68;4.80;;;;;;;;;;4963703;28;20201;-65
2022/08/26 01:37:47;;;;;;;11.40;5.25;;;;;;;;;;4981673;28;20184;-65
2022/08/26 01:40:13;;;;;;;10.35;4.72;;;;;;;;;;4985546;28;20678;-65
2022/08/26 01:42:39;;;;;;;11.18;4.97;;;;;;;;;;4980014;28;20268;-65
2022/08/26 01:45:06;;;;;;;10.95;5.22;;;;;;;;;;4978809;28;20203;-65
2022/08/26 02:00:12;;;;;;;12.18;4.57;;;;;;;;;;4981975;28;20297;-66
2022/08/26 02:02:37;;;;;;;10.93;4.90;;;;;;;;;;4979381;28;20273;-65
2022/08/26 02:05:03;;;;;;;10.80;4.50;;;;;;;;;;4980487;28;20189;-66
2022/08/26 02:07:28;;;;;;;10.13;4.57;;;;;;;;;;4981533;28;20219;-65
2022/08/26 02:09:54;;;;;;;11.00;4.57;;;;;;;;;;4963559;28;20280;-65
2022/08/26 02:12:19;;;;;;;11.43;4.55;;;;;;;;;;4978814;28;20287;-66
2022/08/26 02:14:49;;;;;;;13.27;4.82;;;;;;;;;;4973894;28;20189;-65
2022/08/26 02:17:14;;;;;;;10.13;4.07;;;;;;;;;;4972626;28;20679;-65
2022/08/26 02:19:40;;;;;;;11.32;4.30;;;;;;;;;;4974769;28;20548;-65
2022/08/26 02:22:10;;;;;;;11.00;4.32;;;;;;;;;;4977014;28;20185;-66
2022/08/26 02:24:48;;;;;;;12.00;4.72;;;;;;;;;;4981584;28;20834;-66
2022/08/26 02:27:15;;;;;;;14.43;4.57;;;;;;;;;;4965384;28;20200;-65
2022/08/26 02:29:41;;;;;;;8.63;3.80;;;;;;;;;;4980153;28;20805;-65
2022/08/26 02:32:06;;;;;;;11.15;3.95;;;;;;;;;;4982885;28;20244;-65
2022/08/26 02:34:32;;;;;;;12.27;4.97;;;;;;;;;;4976214;28;20185;-65
2022/08/26 02:37:23;;;;;;;11.73;4.20;;;;;;;;;;4972767;28;20547;-65
2022/08/26 02:39:48;;;;;;;12.23;3.75;;;;;;;;;;4973316;28;20586;-65
2022/08/26 02:42:13;;;;;;;12.38;3.28;;;;;;;;;;4956352;28;20177;-65
2022/08/26 02:44:39;;;;;;;9.35;4.03;;;;;;;;;;4981779;28;20187;-65
2022/08/26 02:47:05;;;;;;;11.15;3.95;;;;;;;;;;4982455;28;20199;-66
2022/08/26 02:49:30;;;;;;;11.05;3.30;;;;;;;;;;4979011;28;20189;-65
2022/08/26 02:51:56;;;;;;;9.07;3.05;;;;;;;;;;4983320;28;20168;-65
2022/08/26 02:54:21;;;;;;;8.77;3.53;;;;;;;;;;4960354;28;20217;-65
2022/08/26 02:56:47;;;;;;;8.32;2.90;;;;;;;;;;4981029;28;20219;-65
2022/08/26 02:59:12;;;;;;;8.75;3.50;;;;;;;;;;4972869;28;20189;-65
2022/08/26 03:01:37;;;;;;;11.88;3.67;;;;;;;;;;4970057;28;20569;-66
2022/08/26 03:04:03;;;;;;;12.48;3.60;;;;;;;;;;4954507;28;20484;-65
2022/08/26 03:06:29;;;;;;;11.52;3.83;;;;;;;;;;4977596;28;20568;-65
2022/08/26 03:08:54;;;;;;;9.07;3.25;;;;;;;;;;4979636;28;20546;-65
2022/08/26 03:11:20;;;;;;;9.40;3.20;;;;;;;;;;4982292;28;20181;-66
2022/08/26 03:13:45;;;;;;;8.95;3.45;;;;;;;;;;4979421;28;20311;-65
2022/08/26 03:16:10;;;;;;;13.80;3.60;;;;;;;;;;4974915;28;20240;-65
2022/08/26 03:18:36;;;;;;;12.65;3.70;;;;;;;;;;4979596;28;20549;-65
2022/08/26 03:21:05;;;;;;;9.57;3.80;;;;;;;;;;4976564;28;20228;-65
2022/08/26 03:23:31;;;;;;;10.82;3.40;;;;;;;;;;4970874;28;20596;-65
2022/08/26 03:25:57;;;;;;;11.23;3.45;;;;;;;;;;4972430;28;20200;-66
2022/08/26 03:28:22;;;;;;;11.13;3.60;;;;;;;;;;4979271;28;20267;-65
2022/08/26 03:30:47;;;;;;;10.52;3.42;;;;;;;;;;4978063;28;20185;-65
2022/08/26 03:33:13;;;;;;;8.82;3.50;;;;;;;;;;4978571;28;20216;-66
2022/08/26 03:35:39;;;;;;;9.10;3.03;;;;;;;;;;4975522;28;20706;-65
2022/08/26 03:38:06;;;;;;;10.65;3.60;;;;;;;;;;4976578;28;20193;-65
2022/08/26 03:40:33;;;;;;;8.20;3.03;;;;;;;;;;4981800;28;20695;-66
2022/08/26 03:42:59;;;;;;;9.13;2.63;;;;;;;;;;4977855;28;20190;-66
2022/08/26 03:45:24;;;;;;;7.95;2.92;;;;;;;;;;4970192;28;20708;-65
2022/08/26 03:47:49;;;;;;;11.30;3.25;;;;;;;;;;4972391;28;20182;-65
2022/08/26 03:50:15;;;;;;;6.50;2.60;;;;;;;;;;4972399;28;20795;-65
2022/08/26 03:52:41;;;;;;;8.60;3.10;;;;;;;;;;4978235;28;20266;-65
2022/08/26 04:01:38;;;;;;;11.48;2.97;;;;;;;;;;4960717;28;20241;-65
2022/08/26 04:04:04;;;;;;;10.48;2.10;;;;;;;;;;4977927;28;20197;-65
2022/08/26 04:06:32;;;;;;;9.05;2.20;;;;;;;;;;4971993;28;20243;-64
2022/08/26 04:08:57;;;;;;;12.88;2.40;;;;;;;;;;4969397;28;20506;-66
2022/08/26 04:11:23;;;;;;;9.60;2.58;;;;;;;;;;4953470;28;20248;-65
2022/08/26 04:13:49;;;;;;;7.43;2.10;;;;;;;;;;4974773;28;20665;-65
2022/08/26 04:16:32;;;;;;;7.54;2.33;;;;;;;;;;4823884;28;10001226;-65
2022/08/26 04:18:58;;;;;;;7.88;2.13;;;;;;;;;;4956407;28;20444;-65
2022/08/26 04:21:23;;;;;;;9.35;2.72;;;;;;;;;;4961085;28;20196;-65
2022/08/26 04:23:49;;;;;;;5.90;1.80;;;;;;;;;;4978489;28;20208;-65
2022/08/26 04:26:15;;;;;;;12.65;2.30;;;;;;;;;;4968388;28;20745;-65
2022/08/26 04:28:40;;;;;;;7.95;2.67;;;;;;;;;;4985913;28;20653;-67
2022/08/26 04:31:09;;;;;;;9.98;2.53;;;;;;;;;;5007326;28;20216;-66
2022/08/26 04:33:34;;;;;;;9.43;2.10;;;;;;;;;;4990715;28;20668;-65
2022/08/26 04:36:00;;;;;;;10.27;2.08;;;;;;;;;;4982682;28;20196;-65
2022/08/26 05:25:40;;;;;;;6.57;1.50;;;;;;;;;;4985352;28;20269;-64
2022/08/26 05:28:06;;;;;;;8.80;1.55;;;;;;;;;;4983489;28;20312;-64
2022/08/26 05:30:32;;;;;;;9.00;1.50;;;;;;;;;;4985091;28;20190;-65
2022/08/26 05:32:58;;;;;;;6.60;1.40;;;;;;;;;;4985575;28;20666;-65
2022/08/26 05:35:27;;;;;;;6.57;1.48;;;;;;;;;;4984309;28;20515;-65
2022/08/26 05:37:52;;;;;;;9.20;1.73;;;;;;;;;;4974256;28;20188;-65
2022/08/26 05:40:18;;;;;;;5.18;1.38;;;;;;;;;;4987105;28;20684;-63
2022/08/26 05:42:45;;;;;;;7.30;1.40;;;;;;;;;;4986955;28;20188;-64
2022/08/26 05:45:11;;;;;;;6.55;1.52;;;;;;;;;;4986623;28;20196;-66
2022/08/26 05:47:37;;;;;;;9.35;1.50;;;;;;;;;;4982955;28;20177;-64
2022/08/26 05:50:04;;;;;;;6.72;1.40;;;;;;;;;;4983089;28;20259;-64
2022/08/26 05:52:30;;;;;;;8.95;1.60;;;;;;;;;;4980453;28;20229;-65
2022/08/26 05:54:55;;;;;;;6.72;1.40;;;;;;;;;;4982283;28;20551;-65
2022/08/26 05:57:20;;;;;;;8.98;1.55;;;;;;;;;;4979470;28;20618;-64
2022/08/26 05:59:46;;;;;;;5.97;1.48;;;;;;;;;;4976365;28;20185;-64
2022/08/26 06:02:11;;;;;;;7.35;1.48;;;;;;;;;;4978924;28;20636;-65
2022/08/26 06:04:37;;;;;;;7.88;1.50;;;;;;;;;;4978700;28;20185;-65
2022/08/26 06:07:02;;;;;;;10.40;1.65;;;;;;;;;;4972951;28;20251;-65
2022/08/26 06:09:28;;;;;;;7.10;1.55;;;;;;;;;;4973926;28;20197;-66
2022/08/26 06:11:54;;;;;;;7.22;1.30;;;;;;;;;;4974417;28;20547;-65
2022/08/26 06:14:20;;;;;;;7.00;1.50;;;;;;;;;;4970623;28;20232;-65
2022/08/26 06:16:45;;;;;;;5.97;1.50;;;;;;;;;;4978529;28;20200;-65
2022/08/26 06:19:11;;;;;;;6.10;1.40;;;;;;;;;;4975297;28;20299;-66
2022/08/26 06:21:38;;;;;;;8.15;1.63;;;;;;;;;;4971392;28;20209;-65
2022/08/26 06:26:51;;;;;;;7.75;1.52;;;;;;;;;;4976816;28;20254;-66
2022/08/26 06:29:17;;;;;;;11.80;1.95;;;;;;;;;;4975589;28;20239;-65
2022/08/26 06:31:42;;;;;;;8.75;1.73;;;;;;;;;;4974662;28;20693;-65
2022/08/26 06:34:07;;;;;;;5.80;1.30;;;;;;;;;;4979549;28;20225;-66
2022/08/26 06:36:33;;;;;;;9.05;1.40;;;;;;;;;;4977717;28;20197;-66
2022/08/26 06:39:05;;;;;;;8.38;1.90;;;;;;;;;;4981819;28;20193;-65
2022/08/26 06:41:32;;;;;;;4.75;1.25;;;;;;;;;;4976825;28;20207;-65
2022/08/26 06:43:58;;;;;;;8.50;1.45;;;;;;;;;;4976964;28;20193;-65
2022/08/26 06:46:23;;;;;;;10.63;1.63;;;;;;;;;;4974838;28;20240;-65
2022/08/26 06:48:49;;;;;;;7.38;1.65;;;;;;;;;;4970285;28;20196;-65
2022/08/26 06:51:16;;;;;;;7.03;1.70;;;;;;;;;;4987340;28;20185;-66
2022/08/26 06:54:07;;;;;;;6.07;1.35;;;;;;;;;;4973207;28;20333;-65
2022/08/26 06:56:34;;;;;;;8.88;1.60;;;;;;;;;;4979991;28;20661;-64
2022/08/26 06:59:00;;;;;;;9.55;1.60;;;;;;;;;;4984037;28;20218;-64
2022/08/26 07:01:26;;;;;;;6.80;1.70;;;;;;;;;;4979203;28;20186;-64
2022/08/26 07:03:52;;;;;;;5.35;1.33;;;;;;;;;;4986237;28;20177;-64
2022/08/26 07:06:19;;;;;;;11.63;1.63;;;;;;;;;;4984865;28;20683;-64
2022/08/26 07:08:45;;;;;;;8.77;1.48;;;;;;;;;;4964091;28;20238;-65
2022/08/26 07:11:10;;;;;;;6.53;1.55;;;;;;;;;;4979667;28;20173;-65
2022/08/26 07:13:36;;;;;;;7.68;1.65;;;;;;;;;;4974588;28;20290;-64
2022/08/26 07:16:03;;;;;;;6.35;1.50;;;;;;;;;;4978883;28;20173;-64
2022/08/26 07:18:29;;;;;;;8.80;1.40;;;;;;;;;;4976861;28;20180;-64
2022/08/26 07:20:54;;;;;;;9.18;1.38;;;;;;;;;;4981571;28;20231;-64
2022/08/26 07:23:19;;;;;;;6.07;1.13;;;;;;;;;;4987553;28;20200;-64
2022/08/26 07:25:45;;;;;;;5.63;1.20;;;;;;;;;;4987043;28;20188;-64
2022/08/26 07:28:10;;;;;;;8.15;1.42;;;;;;;;;;4984837;28;20189;-64
2022/08/26 07:30:37;;;;;;;5.15;1.17;;;;;;;;;;4981367;28;20244;-64
2022/08/26 07:33:03;;;;;;;4.75;1.27;;;;;;;;;;4981578;28;20219;-64
2022/08/26 07:35:28;;;;;;;7.38;1.40;;;;;;;;;;4971649;28;20181;-65
2022/08/26 07:37:53;;;;;;;4.82;1.38;;;;;;;;;;4972584;28;20197;-66
2022/08/26 07:40:19;;;;;;;5.40;1.33;;;;;;;;;;4979369;28;20189;-64
2022/08/26 07:42:44;;;;;;;5.85;1.20;;;;;;;;;;4979827;28;20185;-64
2022/08/26 07:45:09;;;;;;;4.85;1.27;;;;;;;;;;4982713;28;20311;-65
2022/08/26 07:47:35;;;;;;;4.07;1.23;;;;;;;;;;4982462;28;20273;-65
2022/08/26 07:50:00;;;;;;;6.47;1.30;;;;;;;;;;4982156;28;20549;-64
2022/08/26 07:52:26;;;;;;;5.45;1.10;;;;;;;;;;4985397;28;20264;-64
2022/08/26 07:54:52;;;;;;;10.45;1.15;;;;;;;;;;4974456;28;20184;-64
2022/08/26 07:57:17;;;;;;;5.38;1.13;;;;;;;;;;4972048;28;20287;-64
2022/08/26 08:05:48;;;;;;;5.15;1.20;;;;;;;;;;5009175;28;20187;-63
2022/08/26 08:08:13;;;;;;;5.90;1.15;;;;;;;;;;5005091;28;20196;-65
2022/08/26 08:10:40;;;;;;;5.03;1.00;;;;;;;;;;5009810;28;20238;-63
2022/08/26 08:13:06;;;;;;;5.03;1.20;;;;;;;;;;5003935;28;20224;-64
2022/08/26 08:15:32;;;;;;;5.50;1.10;;;;;;;;;;5008032;28;20957;-64
2022/08/26 08:17:57;;;;;;;5.10;1.30;;;;;;;;;;5002178;28;20540;-65
2022/08/26 08:26:28;;;;;;;5.18;0.95;;;;;;;;;;5008673;28;20188;-64
2022/08/26 08:28:54;;;;;;;7.73;1.40;;;;;;;;;;5006107;28;20416;-67
2022/08/26 08:31:21;;;;;;;5.43;1.10;;;;;;;;;;5007370;28;20565;-63
2022/08/26 08:33:47;;;;;;;8.10;1.38;;;;;;;;;;5006726;28;20208;-63
2022/08/26 08:36:14;;;;;;;7.43;1.30;;;;;;;;;;5007494;28;20260;-63
2022/08/26 08:38:39;;;;;;;5.22;1.10;;;;;;;;;;5002900;28;20199;-64
2022/08/26 08:41:05;;;;;;;6.45;1.10;;;;;;;;;;4987932;28;20640;-64
2022/08/26 08:43:37;;;;;;;5.07;1.13;;;;;;;;;;5007780;28;20181;-63
2022/08/26 08:46:05;;;;;;;9.15;1.85;;;;;;;;;;5003454;28;20200;-62
2022/08/26 08:48:31;;;;;;;5.22;1.20;;;;;;;;;;5007212;28;20632;-76
2022/08/26 08:51:02;;;;;;;5.25;1.20;;;;;;;;;;4990055;28;20200;-65
2022/08/26 08:53:32;;;;;;;7.07;1.30;;;;;;;;;;5004837;28;20219;-74
2022/08/26 08:56:03;;;;;;;6.25;1.10;;;;;;;;;;5005557;28;20696;-74
2022/08/26 08:58:36;;;;;;;7.05;1.35;;;;;;;;;;5005141;28;20247;-75
2022/08/26 09:01:03;;;;;;;5.13;1.40;;;;;;;;;;5003960;28;20169;-76
2022/08/26 09:03:32;;;;;;;5.50;1.30;;;;;;;;;;5009854;28;20230;-76
2022/08/26 09:05:57;;;;;;;6.95;1.40;;;;;;;;;;5005650;28;20228;-77
2022/08/26 09:08:26;;;;;;;6.72;1.38;;;;;;;;;;5004791;28;20588;-76
2022/08/26 09:10:53;;;;;;;10.00;1.58;;;;;;;;;;4998332;28;20197;-76
2022/08/26 09:19:50;;;;;;;8.30;1.45;;;;;;;;;;5011194;28;20266;-72
2022/08/26 09:22:27;;;;;;;8.35;1.45;;;;;;;;;;5007731;28;20177;-74
2022/08/26 09:24:52;;;;;;;7.30;1.30;;;;;;;;;;5009216;28;20653;-74
2022/08/26 09:27:37;;;;;;;7.88;1.20;;;;;;;;;;5011870;28;20181;-76
2022/08/26 09:30:02;;;;;;;7.32;1.40;;;;;;;;;;5005872;28;20177;-75
2022/08/26 09:32:29;;;;;;;6.15;1.60;;;;;;;;;;5010687;28;20215;-74
2022/08/26 09:34:54;;;;;;;5.25;1.20;;;;;;;;;;5009918;28;20279;-76
2022/08/26 09:37:37;;;;;;;5.18;1.27;;;;;;;;;;5005338;28;20751;-74
2022/08/26 09:40:10;;;;;;;6.97;1.58;;;;;;;;;;5009468;28;20177;-76
2022/08/26 09:42:36;;;;;;;4.68;1.17;;;;;;;;;;5007586;28;20674;-74
2022/08/26 09:45:03;;;;;;;4.25;1.08;;;;;;;;;;5009290;28;20180;-74
2022/08/26 09:47:33;;;;;;;6.82;1.27;;;;;;;;;;5010278;28;20271;-75
2022/08/26 09:49:59;;;;;;;5.00;1.10;;;;;;;;;;5008483;28;20717;-74
2022/08/26 09:52:26;;;;;;;7.13;1.20;;;;;;;;;;5010570;28;20667;-74
2022/08/26 09:55:05;;;;;;;5.28;1.13;;;;;;;;;;5007858;28;20264;-75
2022/08/26 09:57:32;;;;;;;7.45;1.35;;;;;;;;;;5007570;28;20674;-76
2022/08/26 10:00:00;;;;;;;6.75;1.50;;;;;;;;;;4993983;28;20208;-77
2022/08/26 10:02:33;;;;;;;5.43;1.30;;;;;;;;;;5009433;28;20176;-76
2022/08/26 10:04:59;;;;;;;4.75;1.30;;;;;;;;;;5007421;28;20196;-75
2022/08/26 10:07:33;;;;;;;4.50;1.35;;;;;;;;;;5007898;28;20204;-75
2022/08/26 10:09:58;;;;;;;5.57;1.33;;;;;;;;;;5005785;28;20180;-76
2022/08/26 10:12:24;;;;;;;12.27;1.70;;;;;;;;;;5009697;28;20200;-74
2022/08/26 10:14:51;;;;;;;9.23;1.60;;;;;;;;;;5008112;28;20191;-72
2022/08/26 10:17:28;;;;;;;10.18;1.50;;;;;;;;;;5007448;28;20185;-74
2022/08/26 10:19:54;;;;;;;8.65;1.40;;;;;;;;;;5010455;28;20192;-73
2022/08/26 10:22:23;;;;;;;6.22;1.15;;;;;;;;;;5006933;28;20185;-74
2022/08/26 10:24:49;;;;;;;6.90;1.33;;;;;;;;;;5009479;28;20181;-73
2022/08/26 10:27:18;;;;;;;5.70;1.42;;;;;;;;;;5009611;28;20196;-74
2022/08/26 10:29:44;;;;;;;8.73;1.38;;;;;;;;;;5004963;28;20188;-74
2022/08/26 10:32:11;;;;;;;7.32;1.70;;;;;;;;;;5009198;28;20271;-75
2022/08/26 10:34:36;;;;;;;7.10;1.48;;;;;;;;;;5007376;28;20718;-75
2022/08/26 10:37:03;;;;;;;9.23;1.60;;;;;;;;;;5008231;28;20169;-74
2022/08/26 10:39:30;;;;;;;5.60;1.38;;;;;;;;;;5004589;28;20655;-74
2022/08/26 10:41:59;;;;;;;8.15;1.40;;;;;;;;;;5006802;28;20188;-74
2022/08/26 10:44:24;;;;;;;8.10;1.35;;;;;;;;;;5006792;28;20181;-73
2022/08/26 10:46:51;;;;;;;7.55;1.52;;;;;;;;;;5008462;28;20651;-73
2022/08/26 10:49:17;;;;;;;5.70;1.23;;;;;;;;;;5009773;28;20183;-73
2022/08/26 10:51:46;;;;;;;6.18;1.35;;;;;;;;;;5006787;28;20172;-73
2022/08/26 10:54:17;;;;;;;6.63;1.27;;;;;;;;;;5004586;28;20358;-74
2022/08/26 10:56:45;;;;;;;7.55;1.42;;;;;;;;;;4990776;28;20177;-75
2022/08/26 10:59:11;;;;;;;8.07;1.75;;;;;;;;;;4999594;28;20206;-75
2022/08/26 11:01:41;;;;;;;7.00;1.40;;;;;;;;;;5009890;28;20231;-74
2022/08/26 11:04:11;;;;;;;5.93;1.13;;;;;;;;;;4999468;28;20181;-75
2022/08/26 11:06:37;;;;;;;5.03;1.20;;;;;;;;;;5004874;28;20735;-75
2022/08/26 11:09:03;;;;;;;4.63;1.10;;;;;;;;;;5009497;28;20259;-75
2022/08/26 11:11:35;;;;;;;6.05;1.10;;;;;;;;;;5005779;28;20180;-75
2022/08/26 11:14:03;;;;;;;8.18;1.20;;;;;;;;;;5008516;28;20200;-75
2022/08/26 11:23:12;;;;;;;5.70;1.00;;;;;;;;;;5007678;28;20549;-75
2022/08/26 11:25:56;;;;;;;3.58;0.90;;;;;;;;;;5006841;28;20946;-76
2022/08/26 11:28:32;;;;;;;3.67;0.90;;;;;;;;;;5008107;28;20246;-74
2022/08/26 11:30:58;;;;;;;4.65;1.20;;;;;;;;;;5006285;28;20658;-75
2022/08/26 11:33:42;;;;;;;4.45;1.00;;;;;;;;;;5009888;28;20200;-76
2022/08/26 11:36:07;;;;;;;7.05;1.15;;;;;;;;;;5004696;28;20180;-75
2022/08/26 11:38:33;;;;;;;5.45;0.85;;;;;;;;;;5006321;28;20183;-76
2022/08/26 11:41:04;;;;;;;6.55;1.02;;;;;;;;;;5008471;28;20549;-75
2022/08/26 11:43:30;;;;;;;6.70;0.90;;;;;;;;;;5004430;28;20256;-75
2022/08/26 11:46:04;;;;;;;5.28;1.00;;;;;;;;;;5007284;28;20260;-72
2022/08/26 11:48:32;;;;;;;5.68;1.10;;;;;;;;;;5007045;28;20173;-76
2022/08/26 11:50:59;;;;;;;5.22;0.90;;;;;;;;;;5006608;28;20177;-75
2022/08/26 11:53:24;;;;;;;6.25;0.98;;;;;;;;;;5008474;28;20208;-75
2022/08/26 11:55:50;;;;;;;6.28;1.55;;;;;;;;;;5006198;28;20192;-76
2022/08/26 11:58:16;;;;;;;4.40;1.20;;;;;;;;;;5005778;28;20184;-75
2022/08/26 12:01:00;;;;;;;5.75;1.00;;;;;;;;;;5008946;28;20184;-76
2022/08/26 12:03:34;;;;;;;8.27;1.50;;;;;;;;;;5004915;28;20180;-76
2022/08/26 12:06:00;;;;;;;4.03;0.90;;;;;;;;;;4989972;28;20650;-72
2022/08/26 12:08:26;;;;;;;4.45;0.80;;;;;;;;;;4992231;28;20208;-76
2022/08/26 12:11:02;;;;;;;5.65;1.17;;;;;;;;;;5005253;28;20280;-76
2022/08/26 12:13:27;;;;;;;4.80;1.13;;;;;;;;;;5006051;28;20242;-73
2022/08/26 12:15:53;;;;;;;6.50;1.35;;;;;;;;;;5007618;28;20180;-76
2022/08/26 12:18:20;;;;;;;7.47;1.20;;;;;;;;;;5006171;28;20188;-74
2022/08/26 12:24:26;;;;;;;8.85;1.55;;;;;;;;;;4983977;28;20212;-76
2022/08/26 12:27:17;;;;;;;6.57;0.95;;;;;;;;;;4966191;28;20558;-76
2022/08/26 12:29:42;;;;;;;5.57;1.20;;;;;;;;;;4968989;28;20269;-72
2022/08/26 12:32:08;;;;;;;8.05;0.98;;;;;;;;;;4967925;28;20367;-75
2022/08/26 12:34:34;;;;;;;7.30;1.20;;;;;;;;;;4967539;28;20185;-75
2022/08/26 12:36:59;;;;;;;5.00;1.02;;;;;;;;;;4968597;28;20178;-75
2022/08/26 12:39:25;;;;;;;4.93;0.90;;;;;;;;;;4966338;28;20175;-76
2022/08/26 12:41:52;;;;;;;5.07;1.10;;;;;;;;;;4970479;28;20217;-73
2022/08/26 12:44:30;;;;;;;4.43;0.95;;;;;;;;;;4968233;28;20182;-75
2022/08/26 12:47:00;;;;;;;5.40;1.08;;;;;;;;;;4966075;28;20209;-76
2022/08/26 12:49:25;;;;;;;4.38;0.90;;;;;;;;;;4974327;28;20184;-74
2022/08/26 12:51:51;;;;;;;6.20;1.10;;;;;;;;;;4971356;28;20174;-76
2022/08/26 12:54:17;;;;;;;5.82;0.88;;;;;;;;;;4970614;28;20747;-77
2022/08/26 12:56:42;;;;;;;5.15;1.00;;;;;;;;;;4973521;28;20209;-76
2022/08/26 12:59:16;;;;;;;3.58;0.88;;;;;;;;;;4972133;28;20386;-74
2022/08/26 13:01:42;;;;;;;6.00;0.88;;;;;;;;;;4973401;28;20228;-76
2022/08/26 13:04:28;;;;;;;4.40;1.15;;;;;;;;;;4959104;28;20178;-77
2022/08/26 13:07:12;;;;;;;5.72;0.90;;;;;;;;;;4960835;28;20185;-75
2022/08/26 13:09:37;;;;;;;4.65;1.23;;;;;;;;;;4971740;28;20675;-75
2022/08/26 13:12:03;;;;;;;9.30;1.00;;;;;;;;;;4969011;28;20194;-76
2022/08/26 13:14:29;;;;;;;3.35;0.88;;;;;;;;;;4971968;28;20212;-74
2022/08/26 13:16:55;;;;;;;6.07;1.23;;;;;;;;;;4971017;28;20181;-75
2022/08/26 13:19:21;;;;;;;3.80;0.65;;;;;;;;;;4967682;28;20193;-76
2022/08/26 13:21:48;;;;;;;4.70;0.93;;;;;;;;;;4972674;28;20265;-73
2022/08/26 13:24:14;;;;;;;5.57;1.00;;;;;;;;;;4971288;28;20176;-75
2022/08/26 13:26:40;;;;;;;3.70;0.80;;;;;;;;;;4977167;28;20292;-73
2022/08/26 13:29:05;;;;;;;2.83;0.90;;;;;;;;;;4984274;28;20253;-77
2022/08/26 13:31:31;;;;;;;3.60;1.00;;;;;;;;;;4975343;28;20189;-73
2022/08/26 13:33:57;;;;;;;5.68;1.30;;;;;;;;;;4973064;28;20659;-76
2022/08/26 13:36:22;;;;;;;3.45;0.82;;;;;;;;;;4970113;28;20189;-75
2022/08/26 13:38:47;;;;;;;3.15;0.60;;;;;;;;;;4967921;28;20605;-78
2022/08/26 13:41:13;;;;;;;3.65;0.88;;;;;;;;;;4970427;28;20551;-76
2022/08/26 13:43:38;;;;;;;4.72;1.00;;;;;;;;;;4968583;28;20171;-76
2022/08/26 13:46:04;;;;;;;6.53;1.00;;;;;;;;;;4971609;28;20197;-77
2022/08/26 13:48:30;;;;;;;6.50;1.00;;;;;;;;;;4971829;28;20639;-77
2022/08/26 13:50:56;;;;;;;4.65;0.98;;;;;;;;;;4971037;28;20174;-77
2022/08/26 13:53:21;;;;;;;4.50;0.95;;;;;;;;;;4972575;28;20225;-77
2022/08/26 13:55:47;;;;;;;5.15;0.80;;;;;;;;;;4970485;28;20610;-77
2022/08/26 13:58:12;;;;;;;4.43;0.80;;;;;;;;;;4936116;28;20232;-75
2022/08/26 14:00:38;;;;;;;1.85;0.70;;;;;;;;;;4971250;28;20625;-77
2022/08/26 14:03:03;;;;;;;7.13;1.02;;;;;;;;;;4969439;28;20182;-77
2022/08/26 14:05:29;;;;;;;7.15;0.90;;;;;;;;;;4971421;28;20201;-75
2022/08/26 14:07:56;;;;;;;6.60;1.13;;;;;;;;;;4970477;28;20174;-75
2022/08/26 14:10:21;;;;;;;4.15;0.82;;;;;;;;;;4970585;28;20194;-75
2022/08/26 14:12:46;;;;;;;2.95;0.70;;;;;;;;;;4972707;28;20519;-76
2022/08/26 14:15:14;;;;;;;5.18;0.82;;;;;;;;;;4970160;28;20586;-72
2022/08/26 14:17:40;;;;;;;5.10;1.02;;;;;;;;;;4969992;28;20282;-76
2022/08/26 14:20:06;;;;;;;9.65;0.80;;;;;;;;;;4969797;28;20616;-73
2022/08/26 14:22:32;;;;;;;6.10;1.00;;;;;;;;;;4967972;28;20182;-75
2022/08/26 14:24:57;;;;;;;4.05;0.90;;;;;;;;;;4980944;28;20224;-76
2022/08/26 14:27:23;;;;;;;4.45;0.82;;;;;;;;;;4992186;28;20187;-75
2022/08/26 14:29:49;;;;;;;5.30;0.80;;;;;;;;;;5010656;28;23647;-74
2022/08/26 14:32:17;;;;;;;4.28;0.80;;;;;;;;;;5006589;28;20173;-77
2022/08/26 14:34:42;;;;;;;4.18;0.80;;;;;;;;;;5004596;28;20180;-75
2022/08/26 14:37:07;;;;;;;3.63;0.70;;;;;;;;;;5010391;28;20556;-76
2022/08/26 14:39:33;;;;;;;4.22;0.77;;;;;;;;;;5006356;28;20245;-75
2022/08/26 14:41:58;;;;;;;4.15;1.00;;;;;;;;;;5009447;28;20192;-72
2022/08/26 14:44:25;;;;;;;3.50;0.70;;;;;;;;;;5010304;28;20183;-76
2022/08/26 14:46:51;;;;;;;4.72;0.70;;;;;;;;;;5008571;28;20600;-76
2022/08/26 14:49:17;;;;;;;5.75;0.90;;;;;;;;;;5007332;28;20291;-75
2022/08/26 14:51:43;;;;;;;5.18;0.70;;;;;;;;;;5008521;28;20698;-74
2022/08/26 14:54:15;;;;;;;5.53;0.63;;;;;;;;;;4990350;28;20291;-74
2022/08/26 14:56:43;;;;;;;3.50;0.85;;;;;;;;;;4993272;28;20191;-74
2022/08/26 14:59:09;;;;;;;6.00;0.90;;;;;;;;;;4990711;28;20622;-74
2022/08/26 15:01:35;;;;;;;2.17;0.63;;;;;;;;;;5009835;28;20628;-73
2022/08/26 15:04:02;;;;;;;2.72;0.57;;;;;;;;;;5007214;28;20554;-74
2022/08/26 15:06:30;;;;;;;6.00;0.90;;;;;;;;;;5003487;28;20196;-75
2022/08/26 15:08:59;;;;;;;9.30;0.70;;;;;;;;;;5008622;28;20184;-75
2022/08/26 15:11:25;;;;;;;3.55;0.60;;;;;;;;;;5008886;28;20189;-76
2022/08/26 15:13:51;;;;;;;4.20;0.75;;;;;;;;;;5006726;28;20254;-73
2022/08/26 15:16:17;;;;;;;4.28;0.60;;;;;;;;;;5004614;28;20192;-75
2022/08/26 15:18:42;;;;;;;7.13;1.00;;;;;;;;;;5007225;28;20439;-72
2022/08/26 15:21:07;;;;;;;7.72;0.80;;;;;;;;;;5010040;28;20177;-68
2022/08/26 15:23:38;;;;;;;5.18;0.80;;;;;;;;;;5007326;28;20583;-68
2022/08/26 15:26:08;;;;;;;4.30;0.68;;;;;;;;;;4996851;28;20220;-70
2022/08/26 15:28:33;;;;;;;6.85;0.70;;;;;;;;;;5009403;28;20197;-67
2022/08/26 15:30:59;;;;;;;3.35;1.00;;;;;;;;;;5008198;28;20490;-73
2022/08/26 15:33:25;;;;;;;4.57;1.00;;;;;;;;;;5009439;28;20288;-72
2022/08/26 15:35:51;;;;;;;5.82;1.02;;;;;;;;;;5008277;28;20172;-74
2022/08/26 15:38:17;;;;;;;4.45;0.80;;;;;;;;;;5003501;28;20185;-71
2022/08/26 15:40:46;;;;;;;5.05;1.10;;;;;;;;;;5010173;28;20268;-71
2022/08/26 15:43:11;;;;;;;7.93;1.17;;;;;;;;;;4981251;28;20200;-62
2022/08/26 15:45:37;;;;;;;4.05;1.15;;;;;;;;;;4977493;28;20189;-70
2022/08/26 15:48:02;;;;;;;3.65;1.00;;;;;;;;;;4977274;28;20752;-69
2022/08/26 15:50:28;;;;;;;6.45;1.25;;;;;;;;;;4983720;28;20193;-68
2022/08/26 15:52:55;;;;;;;4.15;0.80;;;;;;;;;;4986494;28;20217;-67
2022/08/26 15:55:23;;;;;;;4.90;0.85;;;;;;;;;;4980786;28;20197;-68
2022/08/26 15:57:50;;;;;;;7.82;1.27;;;;;;;;;;4981350;28;20583;-68
2022/08/26 16:00:16;;;;;;;6.05;1.00;;;;;;;;;;4980481;28;20842;-68
2022/08/26 16:02:41;;;;;;;6.22;1.00;;;;;;;;;;4974545;28;20328;-67
2022/08/26 16:05:06;;;;;;;8.07;1.33;;;;;;;;;;4971812;28;20193;-69
2022/08/26 16:07:32;;;;;;;5.97;0.90;;;;;;;;;;4973940;28;20746;-67
2022/08/26 16:09:57;;;;;;;7.30;1.13;;;;;;;;;;4970480;28;20746;-67
2022/08/26 16:12:23;;;;;;;6.35;1.15;;;;;;;;;;4985276;28;20962;-68
2022/08/26 16:14:54;;;;;;;9.10;1.00;;;;;;;;;;4979275;28;20652;-69